createdAt,value
2019-03-01T00:01:07.954Z,11.15
2019-03-01T00:03:37.467Z,10.95
2019-03-01T00:06:12.118Z,9.70
2019-03-01T00:09:06.409Z,9.33
2019-03-01T00:11:40.799Z,9.78
2019-03-01T00:14:18.357Z,8.30
2019-03-01T00:17:09.347Z,7.90
2019-03-01T00:20:06.574Z,7.95
2019-03-01T00:23:01.919Z,8.33
2019-03-01T00:25:55.827Z,8.45
2019-03-01T00:28:45.230Z,7.62
2019-03-01T00:31:33.355Z,8.08
2019-03-01T00:34:10.554Z,7.80
2019-03-01T00:36:50.804Z,7.85
2019-03-01T00:39:30.895Z,6.22
2019-03-01T00:42:10.683Z,6.62
2019-03-01T00:44:43.611Z,6.47
2019-03-01T00:47:12.081Z,6.35
2019-03-01T00:49:40.543Z,5.75
2019-03-01T00:52:09.231Z,5.08
2019-03-01T00:54:37.942Z,6.47
2019-03-01T00:57:07.009Z,6.12
2019-03-01T00:59:35.394Z,5.95
2019-03-01T01:02:04.044Z,6.30
2019-03-01T01:04:32.462Z,5.70
2019-03-01T01:07:01.053Z,6.75
2019-03-01T01:09:29.446Z,5.55
2019-03-01T01:11:58.078Z,6.03
2019-03-01T01:14:26.490Z,5.33
2019-03-01T01:16:57.872Z,5.35
2019-03-01T01:19:26.271Z,4.90
2019-03-01T01:21:54.684Z,4.62
2019-03-01T01:24:23.092Z,5.78
2019-03-01T01:26:51.731Z,5.58
2019-03-01T01:29:20.407Z,5.08
2019-03-01T01:31:48.899Z,5.40
2019-03-01T01:34:17.295Z,5.72
2019-03-01T01:36:45.686Z,5.60
2019-03-01T01:39:14.124Z,4.47
2019-03-01T01:41:42.570Z,4.78
2019-03-01T01:44:11.210Z,5.12
2019-03-01T01:46:42.302Z,6.17
2019-03-01T01:49:10.887Z,5.05
2019-03-01T01:51:39.691Z,5.10
2019-03-01T01:54:08.281Z,4.95
2019-03-01T01:56:36.710Z,4.95
2019-03-01T01:59:05.121Z,4.90
2019-03-01T02:01:33.516Z,5.10
2019-03-01T02:04:02.172Z,4.47
2019-03-01T02:06:30.946Z,4.62
2019-03-01T02:08:59.398Z,4.85
2019-03-01T02:11:27.801Z,4.97
2019-03-01T02:13:56.265Z,3.90
2019-03-01T02:16:24.756Z,4.90
2019-03-01T02:18:57.762Z,4.15
2019-03-01T02:21:23.400Z,4.92
2019-03-01T02:23:51.831Z,5.12
2019-03-01T02:26:20.482Z,4.95
2019-03-01T02:28:48.879Z,4.95
2019-03-01T02:31:17.628Z,4.25
2019-03-01T02:33:46.133Z,4.95
2019-03-01T02:36:14.755Z,5.30
2019-03-01T02:38:43.156Z,4.97
2019-03-01T02:41:11.783Z,4.75
2019-03-01T02:43:40.203Z,4.70
2019-03-01T02:46:08.866Z,5.60
2019-03-01T02:48:37.348Z,6.60
2019-03-01T02:51:05.745Z,7.60
2019-03-01T02:53:34.148Z,7.25
2019-03-01T02:56:02.794Z,6.60
2019-03-01T02:58:31.244Z,6.47
2019-03-01T03:00:59.702Z,8.93
2019-03-01T03:03:28.338Z,8.63
2019-03-01T03:06:13.691Z,8.10
2019-03-01T03:08:42.094Z,8.25
2019-03-01T03:11:10.511Z,7.85
2019-03-01T03:13:39.031Z,7.70
2019-03-01T03:16:07.422Z,6.15
2019-03-01T03:18:35.824Z,5.47
2019-03-01T03:21:04.234Z,5.37
2019-03-01T03:23:32.870Z,6.22
2019-03-01T03:26:01.455Z,5.55
2019-03-01T03:28:30.092Z,5.47
2019-03-01T03:30:58.523Z,5.55
2019-03-01T03:33:27.102Z,5.20
2019-03-01T03:35:55.499Z,6.00
2019-03-01T03:38:23.997Z,7.05
2019-03-01T03:40:52.410Z,6.05
2019-03-01T03:43:22.869Z,6.25
2019-03-01T03:45:51.188Z,7.08
2019-03-01T03:48:19.592Z,6.40
2019-03-01T03:50:47.988Z,5.80
2019-03-01T03:53:16.428Z,5.80
2019-03-01T03:55:45.083Z,7.17
2019-03-01T03:58:13.477Z,7.33
2019-03-01T04:00:41.886Z,6.15
2019-03-01T04:03:10.279Z,8.10
2019-03-01T04:05:38.696Z,8.45
2019-03-01T04:08:07.101Z,8.40
2019-03-01T04:10:35.503Z,7.30
2019-03-01T04:13:03.894Z,6.75
2019-03-01T04:15:32.337Z,7.83
2019-03-01T04:18:01.219Z,7.60
2019-03-01T04:20:29.848Z,7.42
2019-03-01T04:22:58.259Z,6.50
2019-03-01T04:25:26.668Z,7.17
2019-03-01T04:27:55.184Z,5.95
2019-03-01T04:30:23.671Z,7.12
2019-03-01T04:32:52.112Z,6.65
2019-03-01T04:35:20.832Z,5.97
2019-03-01T04:37:49.234Z,5.78
2019-03-01T04:40:17.802Z,7.25
2019-03-01T04:42:46.234Z,7.10
2019-03-01T04:45:16.487Z,6.87
2019-03-01T04:47:45.178Z,7.03
2019-03-01T04:50:13.960Z,6.70
2019-03-01T04:52:42.430Z,6.60
2019-03-01T04:55:13.357Z,6.83
2019-03-01T04:57:41.774Z,8.38
2019-03-01T05:00:18.230Z,7.08
2019-03-01T05:02:46.762Z,8.35
2019-03-01T05:05:15.941Z,7.37
2019-03-01T05:07:44.571Z,7.92
2019-03-01T05:10:14.063Z,7.33
2019-03-01T05:12:42.643Z,6.90
2019-03-01T05:15:14.611Z,7.03
2019-03-01T05:17:43.515Z,7.60
2019-03-01T05:20:12.067Z,7.50
2019-03-01T05:22:40.548Z,6.47
2019-03-01T05:25:10.587Z,7.75
2019-03-01T05:27:39.223Z,6.72
2019-03-01T05:30:10.763Z,7.67
2019-03-01T05:32:39.208Z,6.83
2019-03-01T05:35:08.803Z,6.67
2019-03-01T05:37:37.216Z,6.90
2019-03-01T05:40:08.927Z,7.05
2019-03-01T05:42:37.346Z,7.05
2019-03-01T05:45:11.730Z,7.12
2019-03-01T05:47:40.303Z,7.37
2019-03-01T05:50:11.766Z,7.47
2019-03-01T05:52:40.344Z,7.62
2019-03-01T05:55:09.903Z,7.10
2019-03-01T05:57:57.936Z,6.40
2019-03-01T06:00:26.701Z,6.67
2019-03-01T06:03:10.279Z,8.35
2019-03-01T06:05:38.913Z,10.23
2019-03-01T06:08:15.883Z,9.43
2019-03-01T06:10:50.803Z,7.70
2019-03-01T06:13:37.463Z,7.95
2019-03-01T06:16:11.596Z,7.35
2019-03-01T06:19:12.007Z,7.95
2019-03-01T06:21:55.711Z,7.60
2019-03-01T06:24:38.740Z,7.40
2019-03-01T06:27:38.258Z,8.75
2019-03-01T06:30:32.516Z,7.70
2019-03-01T06:33:34.021Z,6.92
2019-03-01T06:36:23.475Z,6.80
2019-03-01T06:39:22.495Z,6.80
2019-03-01T06:42:04.092Z,4.92
2019-03-01T06:44:38.250Z,5.28
2019-03-01T06:47:18.654Z,4.00
2019-03-01T06:50:04.048Z,4.67
2019-03-01T06:52:32.464Z,3.42
2019-03-01T06:55:00.871Z,2.70
2019-03-01T06:57:29.310Z,2.00
2019-03-01T06:59:57.972Z,2.30
2019-03-01T07:02:28.006Z,1.98
2019-03-01T07:04:56.416Z,1.98
2019-03-01T07:07:24.885Z,2.40
2019-03-01T07:09:53.291Z,2.35
2019-03-01T07:12:21.692Z,2.15
2019-03-01T07:14:50.110Z,2.17
2019-03-01T07:17:18.574Z,2.00
2019-03-01T07:19:46.982Z,1.80
2019-03-01T07:22:15.394Z,2.30
2019-03-01T07:24:43.790Z,3.00
2019-03-01T07:27:12.448Z,3.08
2019-03-01T07:29:40.959Z,2.85
2019-03-01T07:32:09.419Z,3.17
2019-03-01T07:34:38.082Z,4.12
2019-03-01T07:37:06.518Z,3.40
2019-03-01T07:39:35.197Z,4.28
2019-03-01T07:42:03.594Z,4.25
2019-03-01T07:44:32.060Z,4.50
2019-03-01T07:47:00.455Z,5.30
2019-03-01T07:49:28.856Z,6.35
2019-03-01T07:51:57.251Z,6.78
2019-03-01T07:54:25.735Z,7.30
2019-03-01T07:56:54.388Z,11.50
2019-03-01T07:59:24.018Z,10.72
2019-03-01T08:01:52.699Z,10.10
2019-03-01T08:04:23.665Z,11.75
2019-03-01T08:06:51.473Z,15.70
2019-03-01T08:09:20.192Z,16.20
2019-03-01T08:11:48.863Z,15.30
2019-03-01T08:14:17.267Z,16.40
2019-03-01T08:16:45.697Z,18.42
2019-03-01T08:19:17.072Z,19.57
2019-03-01T08:21:45.864Z,19.17
2019-03-01T08:24:14.607Z,19.57
2019-03-01T08:26:43.644Z,21.00
2019-03-01T08:29:12.079Z,21.33
2019-03-01T08:31:40.611Z,21.77
2019-03-01T08:34:09.158Z,21.60
2019-03-01T08:36:38.579Z,22.30
2019-03-01T08:39:08.381Z,23.18
2019-03-01T08:41:36.868Z,21.30
2019-03-01T08:44:05.381Z,22.02
2019-03-01T08:46:33.859Z,22.02
2019-03-01T08:49:02.263Z,23.15
2019-03-01T08:51:31.158Z,23.55
2019-03-01T08:53:59.629Z,21.35
2019-03-01T08:56:28.034Z,21.97
2019-03-01T08:58:56.450Z,24.35
2019-03-01T09:01:26.271Z,24.10
2019-03-01T09:04:00.657Z,27.75
2019-03-01T09:06:29.087Z,25.97
2019-03-01T09:08:57.741Z,27.37
2019-03-01T09:11:26.226Z,37.50
2019-03-01T09:13:54.811Z,43.08
2019-03-01T09:16:23.208Z,44.77
2019-03-01T09:18:51.612Z,47.13
2019-03-01T09:21:20.026Z,49.85
2019-03-01T09:23:52.261Z,51.00
2019-03-01T09:26:19.991Z,60.58
2019-03-01T09:28:49.152Z,53.85
2019-03-01T09:31:17.823Z,58.55
2019-03-01T09:33:46.482Z,57.65
2019-03-01T09:36:21.410Z,62.55
2019-03-01T09:38:49.442Z,58.58
2019-03-01T09:41:18.093Z,61.70
2019-03-01T09:43:46.544Z,62.80
2019-03-01T09:46:15.016Z,66.42
2019-03-01T09:48:45.666Z,64.35
2019-03-01T09:51:15.784Z,63.02
2019-03-01T09:53:43.930Z,66.42
2019-03-01T09:56:12.970Z,63.42
2019-03-01T09:58:42.237Z,64.72
2019-03-01T10:01:16.512Z,65.97
2019-03-01T10:03:45.202Z,69.22
2019-03-01T10:06:13.839Z,67.40
2019-03-01T10:08:42.262Z,70.62
2019-03-01T10:11:10.683Z,65.83
2019-03-01T10:13:39.295Z,67.95
2019-03-01T10:16:08.866Z,76.82
2019-03-01T10:18:37.320Z,69.12
2019-03-01T10:21:05.714Z,64.62
2019-03-01T10:23:34.110Z,68.60
2019-03-01T10:26:02.518Z,67.78
2019-03-01T10:28:30.981Z,64.42
2019-03-01T10:31:00.116Z,64.12
2019-03-01T10:33:28.605Z,68.87
2019-03-01T10:35:57.042Z,70.92
2019-03-01T10:38:25.821Z,70.28
2019-03-01T10:40:54.455Z,72.37
2019-03-01T10:43:23.550Z,76.22
2019-03-01T10:45:52.178Z,75.10
2019-03-01T10:48:20.580Z,81.05
2019-03-01T10:50:49.001Z,75.50
2019-03-01T10:53:17.410Z,71.92
2019-03-01T10:55:45.857Z,86.05
2019-03-01T10:58:14.262Z,80.38
2019-03-01T11:00:42.672Z,87.42
2019-03-01T11:03:11.246Z,83.17
2019-03-01T11:05:39.664Z,79.20
2019-03-01T11:08:08.105Z,81.90
2019-03-01T11:10:38.578Z,78.60
2019-03-01T11:13:15.369Z,77.03
2019-03-01T11:15:43.885Z,72.37
2019-03-01T11:18:12.450Z,69.97
2019-03-01T11:20:43.834Z,72.97
2019-03-01T11:23:12.231Z,74.10
2019-03-01T11:25:40.652Z,68.57
2019-03-01T11:28:10.539Z,73.97
2019-03-01T11:30:39.294Z,73.28
2019-03-01T11:33:07.703Z,72.47
2019-03-01T11:35:36.251Z,67.22
2019-03-01T11:38:04.645Z,67.03
2019-03-01T11:40:40.993Z,67.30
2019-03-01T11:43:09.493Z,63.38
2019-03-01T11:45:38.272Z,58.83
2019-03-01T11:48:06.845Z,59.23
2019-03-01T11:50:35.252Z,57.33
2019-03-01T11:53:03.767Z,59.33
2019-03-01T11:55:32.250Z,55.28
2019-03-01T11:58:00.675Z,50.35
2019-03-01T12:00:29.829Z,48.52
2019-03-01T12:02:58.240Z,45.00
2019-03-01T12:05:27.210Z,44.65
2019-03-01T12:07:55.662Z,46.23
2019-03-01T12:10:31.095Z,37.95
2019-03-01T12:12:59.845Z,39.30
2019-03-01T12:15:28.247Z,36.03
2019-03-01T12:17:56.916Z,40.17
2019-03-01T12:20:30.297Z,39.27
2019-03-01T12:22:58.715Z,37.85
2019-03-01T12:25:27.122Z,36.15
2019-03-01T12:27:55.588Z,36.90
2019-03-01T12:30:25.487Z,38.38
2019-03-01T12:32:54.119Z,36.75
2019-03-01T12:35:22.528Z,33.40
2019-03-01T12:37:51.243Z,34.70
2019-03-01T12:40:26.992Z,33.50
2019-03-01T12:42:55.470Z,33.92
2019-03-01T12:45:23.871Z,35.50
2019-03-01T12:47:52.393Z,32.30
2019-03-01T12:50:20.860Z,31.45
2019-03-01T12:52:49.535Z,32.23
2019-03-01T12:55:20.695Z,30.60
2019-03-01T12:57:49.095Z,30.68
2019-03-01T13:00:35.086Z,33.85
2019-03-01T13:03:05.315Z,29.50
2019-03-01T13:05:33.693Z,27.62
2019-03-01T13:08:02.265Z,28.87
2019-03-01T13:10:32.602Z,27.58
2019-03-01T13:13:02.111Z,25.10
2019-03-01T13:15:31.559Z,30.17
2019-03-01T13:17:59.983Z,27.17
2019-03-01T13:20:29.905Z,27.10
2019-03-01T13:23:01.015Z,29.60
2019-03-01T13:25:29.513Z,28.83
2019-03-01T13:27:58.731Z,29.77
2019-03-01T13:30:28.275Z,31.60
2019-03-01T13:32:58.983Z,33.35
2019-03-01T13:35:27.612Z,37.60
2019-03-01T13:37:56.780Z,44.30
2019-03-01T13:40:25.671Z,40.20
2019-03-01T13:42:54.158Z,43.45
2019-03-01T13:45:25.182Z,41.15
2019-03-01T13:47:53.879Z,40.38
2019-03-01T13:50:23.009Z,43.98
2019-03-01T13:52:51.493Z,44.67
2019-03-01T13:55:22.397Z,44.30
2019-03-01T13:57:51.350Z,48.78
2019-03-01T14:00:21.357Z,47.65
2019-03-01T14:02:50.775Z,47.45
2019-03-01T14:05:19.560Z,48.33
2019-03-01T14:07:55.432Z,50.92
2019-03-01T14:10:24.265Z,48.48
2019-03-01T14:12:52.934Z,42.03
2019-03-01T14:15:21.379Z,45.38
2019-03-01T14:17:49.842Z,41.75
2019-03-01T14:20:21.083Z,41.28
2019-03-01T14:22:49.682Z,34.80
2019-03-01T14:25:18.208Z,36.10
2019-03-01T14:27:46.668Z,36.10
2019-03-01T14:30:20.382Z,34.45
2019-03-01T14:32:48.780Z,34.75
2019-03-01T14:35:20.126Z,35.05
2019-03-01T14:37:47.647Z,32.15
2019-03-01T14:40:19.028Z,35.43
2019-03-01T14:42:47.799Z,33.75
2019-03-01T14:45:18.654Z,32.75
2019-03-01T14:47:47.140Z,32.35
2019-03-01T14:50:17.994Z,31.12
2019-03-01T14:52:46.413Z,30.10
2019-03-01T14:55:19.693Z,32.33
2019-03-01T14:57:50.995Z,30.00
2019-03-01T15:00:25.479Z,28.75
2019-03-01T15:03:16.658Z,26.57
2019-03-01T15:05:43.922Z,25.27
2019-03-01T15:08:12.326Z,25.27
2019-03-01T15:10:40.740Z,25.95
2019-03-01T15:13:09.416Z,23.70
2019-03-01T15:15:37.892Z,26.20
2019-03-01T15:18:06.320Z,27.40
2019-03-01T15:20:34.725Z,24.25
2019-03-01T15:23:03.307Z,23.73
2019-03-01T15:25:31.743Z,24.25
2019-03-01T15:28:00.130Z,24.63
2019-03-01T15:30:29.273Z,25.88
2019-03-01T15:32:57.699Z,22.52
2019-03-01T15:35:26.411Z,23.60
2019-03-01T15:37:54.983Z,22.50
2019-03-01T15:40:23.683Z,23.32
2019-03-01T15:42:54.653Z,23.95
2019-03-01T15:45:22.235Z,22.65
2019-03-01T15:47:50.640Z,27.85
2019-03-01T15:50:19.114Z,23.35
2019-03-01T15:52:49.850Z,21.12
2019-03-01T15:55:17.672Z,24.00
2019-03-01T15:57:46.075Z,21.33
2019-03-01T16:00:19.350Z,24.25
2019-03-01T16:02:49.984Z,23.25
2019-03-01T16:05:17.918Z,23.18
2019-03-01T16:07:46.640Z,22.37
2019-03-01T16:10:19.490Z,20.97
2019-03-01T16:12:48.167Z,21.42
2019-03-01T16:15:17.087Z,19.77
2019-03-01T16:17:45.579Z,18.90
2019-03-01T16:20:18.373Z,16.93
2019-03-01T16:22:46.805Z,14.65
2019-03-01T16:25:17.211Z,15.98
2019-03-01T16:27:50.731Z,13.85
2019-03-01T16:30:18.902Z,13.58
2019-03-01T16:32:50.484Z,11.33
2019-03-01T16:35:20.739Z,11.88
2019-03-01T16:37:50.849Z,10.48
2019-03-01T16:40:19.496Z,13.60
2019-03-01T16:42:53.000Z,14.20
2019-03-01T16:45:21.007Z,16.95
2019-03-01T16:47:49.245Z,17.23
2019-03-01T16:50:20.064Z,19.92
2019-03-01T16:52:48.534Z,30.20
2019-03-01T16:55:27.957Z,32.93
2019-03-01T16:58:06.087Z,35.43
2019-03-01T17:00:26.109Z,36.75
2019-03-01T17:03:16.818Z,40.80
2019-03-01T17:05:42.626Z,42.62
2019-03-01T17:08:11.509Z,43.80
2019-03-01T17:10:39.942Z,40.83
2019-03-01T17:13:08.388Z,38.25
2019-03-01T17:15:37.033Z,43.92
2019-03-01T17:18:11.315Z,37.03
2019-03-01T17:20:38.372Z,31.68
2019-03-01T17:23:05.809Z,29.45
2019-03-01T17:25:34.292Z,27.45
2019-03-01T17:28:05.622Z,23.67
2019-03-01T17:30:34.039Z,23.38
2019-03-01T17:33:02.483Z,19.87
2019-03-01T17:35:30.886Z,20.57
2019-03-01T17:37:59.303Z,20.37
2019-03-01T17:40:29.371Z,21.25
2019-03-01T17:42:58.351Z,19.40
2019-03-01T17:45:29.827Z,17.40
2019-03-01T17:47:58.478Z,18.30
2019-03-01T17:50:26.892Z,16.80
2019-03-01T17:52:55.432Z,18.27
2019-03-01T17:55:26.785Z,17.70
2019-03-01T17:57:55.571Z,22.25
2019-03-01T18:00:41.973Z,23.27
2019-03-01T18:03:10.427Z,25.02
2019-03-01T18:05:40.589Z,23.30
2019-03-01T18:08:09.068Z,25.25
2019-03-01T18:10:37.502Z,27.10
2019-03-01T18:13:05.983Z,26.70
2019-03-01T18:15:34.440Z,28.02
2019-03-01T18:18:02.880Z,25.43
2019-03-01T18:20:33.887Z,26.77
2019-03-01T18:23:02.343Z,28.38
2019-03-01T18:25:32.026Z,28.27
2019-03-01T18:28:00.449Z,31.62
2019-03-01T18:30:30.747Z,29.63
2019-03-01T18:32:59.196Z,31.77
2019-03-01T18:35:27.979Z,31.05
2019-03-01T18:37:56.507Z,29.00
2019-03-01T18:40:24.911Z,29.05
2019-03-01T18:42:53.323Z,30.00
2019-03-01T18:45:47.076Z,32.70
2019-03-01T18:48:19.039Z,33.48
2019-03-01T18:50:48.625Z,31.48
2019-03-01T18:53:20.045Z,30.30
2019-03-01T18:55:52.770Z,31.25
2019-03-01T18:58:21.580Z,32.42
2019-03-01T19:00:53.813Z,30.30
2019-03-01T19:03:22.270Z,29.75
2019-03-01T19:05:52.651Z,32.50
2019-03-01T19:08:29.074Z,32.10
2019-03-01T19:11:02.915Z,33.15
2019-03-01T19:13:36.331Z,32.42
2019-03-01T19:16:28.540Z,32.30
2019-03-01T19:19:04.485Z,30.97
2019-03-01T19:21:34.942Z,30.17
2019-03-01T19:24:10.996Z,30.80
2019-03-01T19:29:30.765Z,30.00
2019-03-01T19:31:59.198Z,32.67
2019-03-01T19:34:27.846Z,33.58
2019-03-01T19:36:56.354Z,34.65
2019-03-01T19:39:24.822Z,30.37
2019-03-01T19:41:54.507Z,31.73
2019-03-01T19:44:25.660Z,33.85
2019-03-01T19:46:53.757Z,33.75
2019-03-01T19:49:22.393Z,32.15
2019-03-01T19:51:50.786Z,33.55
2019-03-01T19:54:19.187Z,33.00
2019-03-01T19:56:47.642Z,34.25
2019-03-01T19:59:16.049Z,32.60
2019-03-01T20:01:44.462Z,32.83
2019-03-01T20:04:12.862Z,34.20
2019-03-01T20:06:43.530Z,34.88
2019-03-01T20:09:11.836Z,33.30
2019-03-01T20:11:46.960Z,31.48
2019-03-01T20:14:16.915Z,31.52
2019-03-01T20:16:45.390Z,32.73
2019-03-01T20:19:21.928Z,30.43
2019-03-01T20:21:50.395Z,32.13
2019-03-01T20:24:18.914Z,30.15
2019-03-01T20:26:47.503Z,30.35
2019-03-01T20:29:16.094Z,30.08
2019-03-01T20:31:44.858Z,32.67
2019-03-01T20:34:13.262Z,29.40
2019-03-01T20:36:41.856Z,28.77
2019-03-01T20:39:11.685Z,29.32
2019-03-01T20:41:46.194Z,31.00
2019-03-01T20:44:14.622Z,28.52
2019-03-01T20:46:43.840Z,28.52
2019-03-01T20:49:12.043Z,31.90
2019-03-01T20:51:40.857Z,29.70
2019-03-01T20:54:09.259Z,28.38
2019-03-01T20:56:37.745Z,29.50
2019-03-01T20:59:06.467Z,27.27
2019-03-01T21:01:37.344Z,29.37
2019-03-01T21:04:05.732Z,26.75
2019-03-01T21:06:37.399Z,27.58
2019-03-01T21:09:06.937Z,27.70
2019-03-01T21:11:35.554Z,28.07
2019-03-01T21:14:04.030Z,28.30
2019-03-01T21:16:32.924Z,29.55
2019-03-01T21:19:01.406Z,29.10
2019-03-01T21:21:29.845Z,28.67
2019-03-01T21:23:58.282Z,28.00
2019-03-01T21:26:26.695Z,32.05
2019-03-01T21:28:55.198Z,30.43
2019-03-01T21:31:23.596Z,32.53
2019-03-01T21:33:51.998Z,30.55
2019-03-01T21:36:22.925Z,32.25
2019-03-01T21:38:52.517Z,28.25
2019-03-01T21:41:21.166Z,31.20
2019-03-01T21:43:49.642Z,31.42
2019-03-01T21:46:18.466Z,30.37
2019-03-01T21:48:47.122Z,31.00
2019-03-01T21:51:18.534Z,31.68
2019-03-01T21:53:45.954Z,30.10
2019-03-01T21:56:14.714Z,30.77
2019-03-01T21:58:43.142Z,32.88
2019-03-01T22:01:11.537Z,30.40
2019-03-01T22:03:40.719Z,29.70
2019-03-01T22:06:09.527Z,30.70
2019-03-01T22:08:37.925Z,30.10
2019-03-01T22:11:06.334Z,29.10
2019-03-01T22:13:35.727Z,28.87
2019-03-01T22:16:05.030Z,30.52
2019-03-01T22:18:33.451Z,32.23
2019-03-01T22:21:01.965Z,29.65
2019-03-01T22:23:30.373Z,29.87
2019-03-01T22:25:58.779Z,31.17
2019-03-01T22:28:27.179Z,29.52
2019-03-01T22:30:56.533Z,33.45
2019-03-01T22:33:25.769Z,32.25
2019-03-01T22:35:54.167Z,33.88
2019-03-01T22:38:22.825Z,27.10
2019-03-01T22:40:51.278Z,32.40
2019-03-01T22:43:22.514Z,30.10
2019-03-01T22:45:49.802Z,28.60
2019-03-01T22:48:18.253Z,30.68
2019-03-01T22:50:46.662Z,30.02
2019-03-01T22:53:15.058Z,34.05
2019-03-01T22:55:43.455Z,30.85
2019-03-01T22:58:11.879Z,28.05
2019-03-01T23:00:50.213Z,32.50
2019-03-01T23:03:20.247Z,29.02
2019-03-01T23:05:49.030Z,32.23
2019-03-01T23:08:17.505Z,32.48
2019-03-01T23:10:45.905Z,34.55
2019-03-01T23:13:16.907Z,30.82
2019-03-01T23:15:44.666Z,30.72
2019-03-01T23:18:13.436Z,32.03
2019-03-01T23:20:48.203Z,30.08
2019-03-01T23:23:17.815Z,28.42
2019-03-01T23:25:47.670Z,30.45
2019-03-01T23:28:16.098Z,28.98
2019-03-01T23:30:44.766Z,29.10
2019-03-01T23:33:13.426Z,28.52
2019-03-01T23:35:42.070Z,29.60
2019-03-01T23:38:11.499Z,29.75
2019-03-01T23:40:40.885Z,27.05
2019-03-01T23:43:09.656Z,29.25
2019-03-01T23:45:38.053Z,29.02
2019-03-01T23:48:06.479Z,29.60
2019-03-01T23:50:35.096Z,29.10
2019-03-01T23:53:04.163Z,28.47
2019-03-01T23:55:32.819Z,31.65
2019-03-01T23:58:05.969Z,26.75
